createdAt,value
2023-02-13T00:01:14.175Z,37.63
2023-02-13T00:03:16.372Z,36.00
2023-02-13T00:05:18.680Z,35.13
2023-02-13T00:07:21.041Z,33.63
2023-02-13T00:09:23.063Z,34.80
2023-02-13T00:11:25.150Z,33.47
2023-02-13T00:13:27.302Z,30.80
2023-02-13T00:15:29.386Z,34.33
2023-02-13T00:17:32.449Z,31.83
2023-02-13T00:19:34.432Z,30.03
2023-02-13T00:21:36.486Z,34.97
2023-02-13T00:23:39.954Z,34.63
2023-02-13T00:25:42.103Z,32.73
2023-02-13T00:27:44.297Z,29.93
2023-02-13T00:29:46.456Z,29.57
2023-02-13T00:31:48.683Z,27.93
2023-02-13T00:33:51.203Z,31.47
2023-02-13T00:36:04.749Z,29.10
2023-02-13T00:38:06.690Z,29.63
2023-02-13T00:40:09.322Z,29.23
2023-02-13T00:42:11.975Z,29.03
2023-02-13T00:44:13.992Z,29.10
2023-02-13T00:46:17.703Z,27.93
2023-02-13T00:48:19.962Z,27.67
2023-02-13T00:50:21.934Z,27.03
2023-02-13T00:52:23.952Z,26.87
2023-02-13T00:54:25.920Z,29.23
2023-02-13T00:56:28.428Z,27.70
2023-02-13T00:58:33.453Z,27.57
2023-02-13T01:00:35.754Z,27.30
2023-02-13T01:02:37.703Z,27.23
2023-02-13T01:04:39.808Z,26.67
2023-02-13T01:06:41.936Z,25.63
2023-02-13T01:08:44.023Z,23.63
2023-02-13T01:10:47.623Z,26.30
2023-02-13T01:12:49.646Z,26.77
2023-02-13T01:14:52.634Z,43.07
2023-02-13T01:16:55.280Z,39.77
2023-02-13T01:18:57.397Z,33.20
2023-02-13T01:21:06.210Z,30.87
2023-02-13T01:23:10.235Z,26.17
2023-02-13T01:25:12.243Z,25.77
2023-02-13T01:27:14.751Z,25.37
2023-02-13T01:29:17.855Z,22.37
2023-02-13T01:31:20.205Z,23.80
2023-02-13T01:33:27.864Z,25.27
2023-02-13T01:35:29.772Z,25.50
2023-02-13T01:37:32.078Z,25.23
2023-02-13T01:39:36.099Z,24.60
2023-02-13T01:41:38.826Z,24.90
2023-02-13T01:44:26.874Z,25.23
2023-02-13T01:46:43.447Z,28.40
2023-02-13T01:48:46.908Z,30.53
2023-02-13T01:51:06.063Z,29.67
2023-02-13T01:53:38.324Z,31.97
2023-02-13T01:56:18.352Z,27.87
2023-02-13T01:58:25.112Z,27.60
2023-02-13T02:00:30.455Z,28.00
2023-02-13T02:02:37.558Z,26.67
2023-02-13T02:04:42.288Z,27.43
2023-02-13T02:06:58.170Z,24.20
2023-02-13T02:09:11.116Z,27.63
2023-02-13T02:11:22.921Z,25.47
2023-02-13T02:13:29.773Z,25.23
2023-02-13T02:15:38.975Z,25.40
2023-02-13T02:17:41.633Z,25.00
2023-02-13T02:20:04.118Z,23.73
2023-02-13T02:22:38.215Z,24.97
2023-02-13T02:25:14.166Z,24.90
2023-02-13T02:27:37.861Z,25.97
2023-02-13T02:30:01.838Z,26.80
2023-02-13T02:32:11.639Z,23.70
2023-02-13T02:34:31.931Z,23.83
2023-02-13T02:36:43.334Z,23.53
2023-02-13T02:39:02.223Z,26.60
2023-02-13T02:41:51.944Z,25.97
2023-02-13T02:44:08.589Z,27.27
2023-02-13T02:46:32.585Z,25.67
2023-02-13T02:49:25.306Z,27.07
2023-02-13T02:51:30.234Z,28.40
2023-02-13T02:53:47.264Z,27.43
2023-02-13T02:56:07.677Z,27.97
2023-02-13T02:58:32.797Z,27.00
2023-02-13T03:01:01.681Z,24.63
2023-02-13T03:03:28.409Z,25.43
2023-02-13T03:05:53.008Z,25.37
2023-02-13T03:07:55.060Z,24.40
2023-02-13T03:10:20.947Z,25.97
2023-02-13T03:12:45.642Z,24.43
2023-02-13T03:14:47.892Z,22.60
2023-02-13T03:17:09.806Z,23.27
2023-02-13T03:19:47.357Z,21.80
2023-02-13T03:22:18.510Z,21.07
2023-02-13T03:24:32.048Z,22.97
2023-02-13T03:26:52.142Z,22.27
2023-02-13T03:29:27.238Z,19.80
2023-02-13T03:31:50.858Z,25.47
2023-02-13T03:34:24.826Z,35.10
2023-02-13T03:36:59.257Z,32.77
2023-02-13T03:39:17.258Z,29.37
2023-02-13T03:41:27.768Z,25.13
2023-02-13T03:43:37.005Z,20.87
2023-02-13T03:45:57.487Z,20.77
2023-02-13T03:48:10.031Z,20.90
2023-02-13T03:50:14.150Z,20.50
2023-02-13T03:52:27.446Z,21.57
2023-02-13T03:55:05.730Z,22.77
2023-02-13T03:57:27.353Z,19.20
2023-02-13T03:59:34.112Z,21.07
2023-02-13T04:01:37.778Z,20.00
2023-02-13T04:03:57.825Z,22.30
2023-02-13T04:06:27.912Z,22.10
2023-02-13T04:08:30.400Z,46.17
2023-02-13T04:10:35.986Z,42.87
2023-02-13T04:12:47.805Z,35.17
2023-02-13T04:15:03.408Z,29.20
2023-02-13T04:17:12.128Z,27.97
2023-02-13T04:19:15.405Z,26.00
2023-02-13T04:21:17.484Z,42.13
2023-02-13T04:23:19.950Z,37.67
2023-02-13T04:25:22.606Z,35.60
2023-02-13T04:27:26.993Z,31.53
2023-02-13T04:29:29.146Z,25.57
2023-02-13T04:31:31.562Z,24.23
2023-02-13T04:33:33.792Z,26.40
2023-02-13T04:35:35.931Z,34.17
2023-02-13T04:37:38.128Z,94.97
2023-02-13T04:39:40.081Z,56.27
2023-02-13T04:41:42.634Z,52.63
2023-02-13T04:43:45.502Z,91.30
2023-02-13T04:45:51.240Z,81.63
2023-02-13T04:47:55.137Z,102.90
2023-02-13T04:49:57.250Z,59.43
2023-02-13T04:51:59.228Z,42.20
2023-02-13T04:54:01.235Z,32.53
2023-02-13T04:56:03.360Z,35.53
2023-02-13T04:58:08.323Z,106.07
2023-02-13T05:00:11.136Z,79.47
2023-02-13T05:02:13.479Z,68.43
2023-02-13T05:04:16.510Z,61.73
2023-02-13T05:06:18.642Z,74.73
2023-02-13T05:08:20.748Z,83.77
2023-02-13T05:10:23.222Z,65.53
2023-02-13T05:12:25.288Z,53.50
2023-02-13T05:14:27.834Z,36.37
2023-02-13T05:16:29.973Z,27.23
2023-02-13T05:18:32.625Z,43.37
2023-02-13T05:20:34.693Z,38.17
2023-02-13T05:22:55.344Z,39.17
2023-02-13T05:24:57.406Z,34.00
2023-02-13T05:26:59.435Z,35.50
2023-02-13T05:29:23.070Z,34.33
2023-02-13T05:31:25.322Z,31.77
2023-02-13T05:33:27.838Z,31.03
2023-02-13T05:35:29.930Z,32.90
2023-02-13T05:37:32.384Z,31.53
2023-02-13T05:39:34.532Z,56.53
2023-02-13T05:41:36.539Z,67.13
2023-02-13T05:43:38.617Z,50.10
2023-02-13T05:45:40.809Z,34.83
2023-02-13T05:47:43.366Z,40.23
2023-02-13T05:49:45.464Z,40.80
2023-02-13T05:51:47.857Z,99.23
2023-02-13T05:53:50.193Z,87.97
2023-02-13T05:55:52.686Z,86.00
2023-02-13T05:58:00.805Z,69.83
2023-02-13T06:00:04.785Z,48.63
2023-02-13T06:02:07.606Z,62.67
2023-02-13T06:04:09.904Z,111.07
2023-02-13T06:06:12.100Z,124.40
2023-02-13T06:08:14.208Z,116.67
2023-02-13T06:10:16.559Z,89.17
2023-02-13T06:12:18.628Z,67.20
2023-02-13T06:14:20.724Z,46.60
2023-02-13T06:16:23.390Z,48.37
2023-02-13T06:18:27.074Z,62.57
2023-02-13T06:20:29.450Z,50.53
2023-02-13T06:22:31.458Z,42.60
2023-02-13T06:24:33.890Z,40.40
2023-02-13T06:26:35.962Z,41.03
2023-02-13T06:28:38.093Z,39.10
2023-02-13T06:30:40.303Z,43.43
2023-02-13T06:32:42.696Z,38.77
2023-02-13T06:34:44.714Z,35.03
2023-02-13T06:36:47.310Z,33.67
2023-02-13T06:38:49.289Z,44.60
2023-02-13T06:40:51.514Z,46.27
2023-02-13T06:42:54.121Z,50.00
2023-02-13T06:44:56.337Z,49.33
2023-02-13T06:47:01.583Z,47.07
2023-02-13T06:49:04.039Z,45.53
2023-02-13T06:51:08.872Z,49.53
2023-02-13T06:53:12.134Z,47.53
2023-02-13T06:55:14.994Z,43.40
2023-02-13T06:57:17.630Z,39.73
2023-02-13T06:59:19.718Z,46.33
2023-02-13T07:01:21.904Z,39.57
2023-02-13T07:03:24.400Z,39.03
2023-02-13T07:05:26.292Z,34.30
2023-02-13T07:07:28.340Z,41.23
2023-02-13T07:09:31.715Z,43.83
2023-02-13T07:11:34.276Z,42.27
2023-02-13T07:13:36.281Z,56.83
2023-02-13T07:15:38.790Z,51.63
2023-02-13T07:17:40.654Z,49.83
2023-02-13T07:19:42.676Z,46.47
2023-02-13T07:21:44.546Z,47.17
2023-02-13T07:23:46.595Z,38.00
2023-02-13T07:25:48.649Z,34.00
2023-02-13T07:27:50.897Z,30.07
2023-02-13T07:29:52.868Z,26.30
2023-02-13T07:31:55.049Z,23.87
2023-02-13T07:34:00.411Z,23.73
2023-02-13T07:36:05.887Z,24.10
2023-02-13T07:38:08.044Z,24.63
2023-02-13T07:40:13.923Z,26.90
2023-02-13T07:42:16.133Z,27.40
2023-02-13T07:44:18.190Z,27.00
2023-02-13T07:46:20.717Z,29.00
2023-02-13T07:48:24.126Z,31.97
2023-02-13T07:50:26.690Z,32.70
2023-02-13T07:52:28.762Z,29.33
2023-02-13T07:54:31.354Z,39.37
2023-02-13T07:56:33.792Z,34.03
2023-02-13T07:58:37.489Z,31.70
2023-02-13T08:00:41.670Z,33.60
2023-02-13T08:02:44.604Z,27.73
2023-02-13T08:04:46.742Z,27.70
2023-02-13T08:06:48.802Z,27.77
2023-02-13T08:09:10.855Z,28.07
2023-02-13T08:11:50.171Z,26.80
2023-02-13T08:13:52.615Z,25.63
2023-02-13T08:15:55.041Z,28.13
2023-02-13T08:17:57.260Z,25.27
2023-02-13T08:19:59.472Z,26.87
2023-02-13T08:22:01.717Z,28.70
2023-02-13T08:24:04.923Z,29.40
2023-02-13T08:26:07.045Z,28.10
2023-02-13T08:28:09.013Z,25.73
2023-02-13T08:30:12.243Z,29.03
2023-02-13T08:32:15.163Z,28.43
2023-02-13T08:34:17.301Z,26.30
2023-02-13T08:36:20.060Z,25.80
2023-02-13T08:38:22.083Z,24.93
2023-02-13T08:40:26.033Z,27.87
2023-02-13T08:42:28.155Z,25.73
2023-02-13T08:44:30.401Z,23.63
2023-02-13T08:46:32.638Z,22.67
2023-02-13T08:48:35.170Z,23.57
2023-02-13T08:50:37.468Z,25.23
2023-02-13T08:52:39.488Z,23.20
2023-02-13T08:54:41.555Z,24.67
2023-02-13T08:56:43.798Z,24.13
2023-02-13T08:58:49.546Z,24.23
2023-02-13T09:00:52.092Z,25.30
2023-02-13T09:02:56.894Z,24.13
2023-02-13T09:05:00.506Z,23.80
2023-02-13T09:07:02.660Z,23.10
2023-02-13T09:09:05.811Z,23.83
2023-02-13T09:11:08.014Z,24.63
2023-02-13T09:13:10.699Z,24.47
2023-02-13T09:15:12.924Z,28.17
2023-02-13T09:17:18.654Z,30.60
2023-02-13T09:19:21.052Z,26.43
2023-02-13T09:21:24.263Z,25.23
2023-02-13T09:23:26.625Z,24.17
2023-02-13T09:25:28.659Z,24.10
2023-02-13T09:27:30.977Z,22.53
2023-02-13T09:29:34.162Z,24.53
2023-02-13T09:31:38.865Z,21.80
2023-02-13T09:33:41.383Z,23.17
2023-02-13T09:35:46.196Z,23.77
2023-02-13T09:37:51.013Z,23.63
2023-02-13T09:39:53.590Z,23.90
2023-02-13T09:41:57.496Z,24.30
2023-02-13T09:44:34.190Z,27.13
2023-02-13T09:46:39.170Z,28.03
2023-02-13T09:48:45.645Z,27.00
2023-02-13T09:50:47.844Z,26.63
2023-02-13T09:52:53.308Z,26.33
2023-02-13T09:54:58.485Z,26.07
2023-02-13T09:57:19.680Z,28.97
2023-02-13T09:59:36.911Z,27.53
2023-02-13T10:01:44.525Z,26.30
2023-02-13T10:04:05.072Z,24.50
2023-02-13T10:06:21.921Z,23.70
2023-02-13T10:08:36.430Z,24.83
2023-02-13T10:11:07.506Z,24.93
2023-02-13T10:13:26.497Z,25.17
2023-02-13T10:15:51.547Z,25.63
2023-02-13T10:18:35.154Z,22.53
2023-02-13T10:20:42.458Z,22.60
2023-02-13T10:23:08.429Z,22.33
2023-02-13T10:25:23.079Z,23.00
2023-02-13T10:27:43.532Z,32.23
2023-02-13T10:30:15.242Z,50.70
2023-02-13T10:32:22.575Z,37.37
2023-02-13T10:34:31.584Z,31.67
2023-02-13T10:36:40.884Z,36.93
2023-02-13T10:39:05.376Z,27.70
2023-02-13T10:41:45.062Z,38.80
2023-02-13T10:44:13.672Z,28.10
2023-02-13T10:46:34.270Z,28.47
2023-02-13T10:49:00.204Z,27.97
2023-02-13T10:51:06.312Z,29.17
2023-02-13T10:53:25.216Z,34.30
2023-02-13T10:55:59.485Z,26.13
2023-02-13T10:58:05.021Z,31.30
2023-02-13T11:00:46.246Z,25.47
2023-02-13T11:02:48.790Z,23.63
2023-02-13T11:04:57.973Z,19.67
2023-02-13T11:07:01.894Z,27.97
2023-02-13T11:09:09.868Z,30.07
2023-02-13T11:11:31.714Z,31.87
2023-02-13T11:13:33.621Z,23.77
2023-02-13T11:15:37.407Z,22.50
2023-02-13T11:17:44.226Z,39.37
2023-02-13T11:19:56.039Z,37.73
2023-02-13T11:22:12.276Z,34.33
2023-02-13T11:24:24.736Z,24.63
2023-02-13T11:26:29.547Z,29.70
2023-02-13T11:28:35.223Z,25.10
2023-02-13T11:30:39.642Z,26.13
2023-02-13T11:32:41.948Z,35.57
2023-02-13T11:34:46.769Z,43.13
2023-02-13T11:36:52.992Z,84.73
2023-02-13T11:39:00.670Z,82.47
2023-02-13T11:41:12.386Z,61.30
2023-02-13T11:43:39.241Z,43.97
2023-02-13T11:45:41.422Z,43.07
2023-02-13T11:47:43.846Z,53.87
2023-02-13T11:49:47.819Z,46.13
2023-02-13T11:51:55.968Z,44.07
2023-02-13T11:54:01.277Z,40.63
2023-02-13T11:56:09.275Z,35.03
2023-02-13T11:58:11.545Z,23.27
2023-02-13T12:00:37.521Z,23.77
2023-02-13T12:02:50.194Z,19.17
2023-02-13T12:05:17.017Z,23.57
2023-02-13T12:07:21.700Z,30.57
2023-02-13T12:09:23.797Z,28.30
2023-02-13T12:11:33.808Z,21.47
2023-02-13T12:13:39.135Z,21.57
2023-02-13T12:15:43.438Z,28.03
2023-02-13T12:17:50.157Z,25.63
2023-02-13T12:19:52.566Z,34.27
2023-02-13T12:21:57.548Z,31.63
2023-02-13T12:24:30.378Z,23.60
2023-02-13T12:26:43.050Z,20.67
2023-02-13T12:28:45.083Z,19.27
2023-02-13T12:31:09.907Z,24.57
2023-02-13T12:33:54.306Z,29.33
2023-02-13T12:36:21.234Z,19.30
2023-02-13T12:38:35.198Z,18.83
2023-02-13T12:40:43.332Z,17.93
2023-02-13T12:43:27.102Z,22.50
2023-02-13T12:45:38.642Z,20.33
2023-02-13T12:47:49.158Z,27.60
2023-02-13T12:50:18.001Z,23.50
2023-02-13T12:52:29.240Z,22.67
2023-02-13T12:55:05.202Z,24.73
2023-02-13T12:57:07.485Z,22.03
2023-02-13T12:59:11.007Z,20.07
2023-02-13T13:01:34.297Z,18.47
2023-02-13T13:03:52.522Z,16.73
2023-02-13T13:06:31.976Z,19.30
2023-02-13T13:08:48.931Z,27.20
2023-02-13T13:11:12.747Z,27.60
2023-02-13T13:13:20.642Z,21.07
2023-02-13T13:15:48.138Z,22.93
2023-02-13T13:18:40.989Z,21.77
2023-02-13T13:20:58.834Z,20.40
2023-02-13T13:23:42.332Z,19.23
2023-02-13T13:25:52.169Z,23.80
2023-02-13T13:28:02.437Z,28.93
2023-02-13T13:30:14.227Z,25.03
2023-02-13T13:32:21.654Z,21.27
2023-02-13T13:34:26.804Z,21.93
2023-02-13T13:36:50.044Z,20.73
2023-02-13T13:39:05.351Z,17.53
2023-02-13T13:41:23.681Z,17.80
2023-02-13T13:44:22.666Z,17.20
2023-02-13T13:46:32.864Z,18.37
2023-02-13T13:48:35.005Z,20.90
2023-02-13T13:50:42.118Z,20.60
2023-02-13T13:53:12.225Z,23.07
2023-02-13T13:56:09.611Z,23.53
2023-02-13T13:58:40.888Z,34.53
2023-02-13T14:00:43.133Z,34.60
2023-02-13T14:02:51.491Z,29.13
2023-02-13T14:05:20.842Z,27.30
2023-02-13T14:07:24.712Z,26.73
2023-02-13T14:09:27.282Z,26.03
2023-02-13T14:11:39.277Z,26.50
2023-02-13T14:13:41.694Z,24.47
2023-02-13T14:15:45.112Z,26.47
2023-02-13T14:17:49.743Z,24.73
2023-02-13T14:19:53.396Z,26.07
2023-02-13T14:22:15.893Z,26.10
2023-02-13T14:24:20.751Z,27.13
2023-02-13T14:26:32.410Z,26.57
2023-02-13T14:28:34.521Z,28.97
2023-02-13T14:30:40.606Z,32.70
2023-02-13T14:32:47.204Z,38.53
2023-02-13T14:35:18.790Z,38.57
2023-02-13T14:37:30.472Z,37.77
2023-02-13T14:39:38.067Z,30.93
2023-02-13T14:41:54.214Z,29.37
2023-02-13T14:43:57.115Z,32.30
2023-02-13T14:46:08.445Z,31.30
2023-02-13T14:48:14.925Z,34.37
2023-02-13T14:50:23.963Z,33.63
2023-02-13T14:52:32.955Z,41.30
2023-02-13T14:55:12.970Z,48.27
2023-02-13T14:57:32.065Z,47.07
2023-02-13T14:59:39.058Z,44.77
2023-02-13T15:01:58.119Z,41.53
2023-02-13T15:04:07.814Z,44.47
2023-02-13T15:06:30.159Z,40.70
2023-02-13T15:08:41.290Z,40.90
2023-02-13T15:10:47.327Z,41.00
2023-02-13T15:12:58.449Z,42.20
2023-02-13T15:15:01.939Z,37.47
2023-02-13T15:17:20.550Z,35.40
2023-02-13T15:19:24.768Z,34.60
2023-02-13T15:21:34.388Z,33.57
2023-02-13T15:23:36.745Z,33.17
2023-02-13T15:25:40.556Z,35.00
2023-02-13T15:27:44.129Z,32.47
2023-02-13T15:30:05.113Z,32.33
2023-02-13T15:32:28.898Z,29.37
2023-02-13T15:34:35.869Z,30.67
2023-02-13T15:36:42.223Z,30.33
2023-02-13T15:38:47.620Z,29.90
2023-02-13T15:40:52.263Z,29.40
2023-02-13T15:42:55.569Z,27.07
2023-02-13T15:44:58.956Z,28.27
2023-02-13T15:47:09.628Z,28.47
2023-02-13T15:49:18.939Z,29.37
2023-02-13T15:51:23.694Z,30.37
2023-02-13T15:53:26.044Z,31.43
2023-02-13T15:55:33.998Z,31.47
2023-02-13T15:57:36.457Z,30.53
2023-02-13T15:59:39.887Z,34.37
2023-02-13T16:01:46.534Z,32.10
2023-02-13T16:04:00.277Z,33.83
2023-02-13T16:06:04.835Z,30.53
2023-02-13T16:08:25.226Z,33.83
2023-02-13T16:10:36.401Z,33.33
2023-02-13T16:12:47.027Z,30.50
2023-02-13T16:14:54.437Z,32.47
2023-02-13T16:17:07.176Z,33.27
2023-02-13T16:19:32.801Z,40.17
2023-02-13T16:21:36.097Z,37.87
2023-02-13T16:23:38.824Z,43.27
2023-02-13T16:25:41.757Z,39.57
2023-02-13T16:27:52.780Z,44.17
2023-02-13T16:30:03.372Z,41.57
2023-02-13T16:32:14.589Z,40.43
2023-02-13T16:34:22.387Z,39.80
2023-02-13T16:36:30.065Z,41.27
2023-02-13T16:38:36.102Z,44.07
2023-02-13T16:40:41.664Z,46.50
2023-02-13T16:42:43.750Z,49.40
2023-02-13T16:44:45.882Z,56.83
2023-02-13T16:46:58.339Z,55.80
2023-02-13T16:49:09.590Z,56.47
2023-02-13T16:51:12.624Z,62.10
2023-02-13T16:53:16.454Z,59.10
2023-02-13T16:55:18.847Z,62.07
2023-02-13T16:57:33.929Z,63.27
2023-02-13T16:59:48.606Z,64.97
2023-02-13T17:02:14.678Z,63.43
2023-02-13T17:04:22.176Z,66.77
2023-02-13T17:06:25.395Z,62.83
2023-02-13T17:08:28.052Z,60.53
2023-02-13T17:10:34.170Z,61.30
2023-02-13T17:12:38.862Z,53.10
2023-02-13T17:14:41.174Z,49.97
2023-02-13T17:16:43.183Z,40.13
2023-02-13T17:18:45.214Z,37.80
2023-02-13T17:20:47.834Z,36.83
2023-02-13T17:22:52.677Z,41.13
2023-02-13T17:24:54.969Z,48.23
2023-02-13T17:26:57.150Z,42.63
2023-02-13T17:28:59.618Z,40.10
2023-02-13T17:31:02.228Z,42.37
2023-02-13T17:33:08.254Z,44.73
2023-02-13T17:35:11.924Z,48.00
2023-02-13T17:37:18.657Z,46.97
2023-02-13T17:39:20.766Z,44.70
2023-02-13T17:41:24.148Z,41.67
2023-02-13T17:43:28.176Z,38.40
2023-02-13T17:45:33.775Z,34.20
2023-02-13T17:47:35.957Z,40.80
2023-02-13T17:49:38.398Z,42.93
2023-02-13T17:51:41.621Z,40.10
2023-02-13T17:53:43.649Z,36.47
2023-02-13T17:55:45.858Z,35.13
2023-02-13T17:57:52.704Z,39.23
2023-02-13T17:59:59.315Z,44.73
2023-02-13T18:02:01.500Z,45.63
2023-02-13T18:04:03.691Z,48.27
2023-02-13T18:06:06.174Z,48.17
2023-02-13T18:08:08.753Z,48.17
2023-02-13T18:10:18.768Z,47.60
2023-02-13T18:12:24.317Z,46.90
2023-02-13T18:14:29.985Z,45.07
2023-02-13T18:16:32.278Z,48.43
2023-02-13T18:18:34.314Z,48.90
2023-02-13T18:20:36.443Z,52.77
2023-02-13T18:22:41.670Z,59.37
2023-02-13T18:24:43.942Z,65.20
2023-02-13T18:26:46.044Z,67.97
2023-02-13T18:28:52.501Z,68.30
2023-02-13T18:30:54.499Z,61.53
2023-02-13T18:32:59.114Z,59.57
2023-02-13T18:35:01.349Z,58.37
2023-02-13T18:37:04.557Z,57.53
2023-02-13T18:39:08.421Z,47.87
2023-02-13T18:41:12.205Z,42.97
2023-02-13T18:43:14.180Z,39.10
2023-02-13T18:45:16.314Z,38.40
2023-02-13T18:47:18.875Z,34.73
2023-02-13T18:49:21.065Z,36.03
2023-02-13T18:51:25.187Z,37.67
2023-02-13T18:53:27.640Z,44.90
2023-02-13T18:55:29.659Z,54.77
2023-02-13T18:57:31.914Z,61.73
2023-02-13T18:59:33.974Z,59.90
2023-02-13T19:01:36.896Z,54.80
2023-02-13T19:03:39.693Z,56.17
2023-02-13T19:05:41.802Z,56.33
2023-02-13T19:07:44.149Z,62.57
2023-02-13T19:09:46.266Z,80.03
2023-02-13T19:11:48.928Z,82.43
2023-02-13T19:13:56.679Z,71.17
2023-02-13T19:16:10.838Z,54.53
2023-02-13T19:18:12.849Z,52.07
2023-02-13T19:20:16.751Z,50.03
2023-02-13T19:22:19.320Z,55.93
2023-02-13T19:24:21.343Z,51.77
2023-02-13T19:26:26.250Z,54.80
2023-02-13T19:28:28.308Z,69.80
2023-02-13T19:30:30.524Z,69.13
2023-02-13T19:32:32.705Z,66.23
2023-02-13T19:34:35.073Z,64.07
2023-02-13T19:36:37.030Z,77.87
2023-02-13T19:38:42.060Z,87.20
2023-02-13T19:40:44.148Z,80.37
2023-02-13T19:42:46.186Z,86.97
2023-02-13T19:44:48.126Z,88.33
2023-02-13T19:46:50.357Z,88.37
2023-02-13T19:48:52.854Z,78.03
2023-02-13T19:50:54.915Z,66.73
2023-02-13T19:52:56.855Z,58.50
2023-02-13T19:54:59.261Z,56.03
2023-02-13T19:57:07.298Z,59.87
2023-02-13T19:59:13.592Z,57.33
2023-02-13T20:01:18.394Z,57.07
2023-02-13T20:03:20.939Z,61.83
2023-02-13T20:05:22.832Z,64.00
2023-02-13T20:07:24.889Z,64.80
2023-02-13T20:09:26.872Z,60.67
2023-02-13T20:11:29.585Z,65.40
2023-02-13T20:13:32.100Z,77.77
2023-02-13T20:15:37.082Z,81.53
2023-02-13T20:17:39.598Z,74.47
2023-02-13T20:19:41.866Z,54.10
2023-02-13T20:21:45.464Z,49.43
2023-02-13T20:23:51.838Z,43.77
2023-02-13T20:25:56.201Z,41.57
2023-02-13T20:27:59.823Z,43.67
2023-02-13T20:30:06.860Z,47.40
2023-02-13T20:32:10.461Z,55.33
2023-02-13T20:34:12.868Z,51.30
2023-02-13T20:36:20.777Z,50.77
2023-02-13T20:38:22.903Z,49.00
2023-02-13T20:40:25.974Z,51.00
2023-02-13T20:42:28.359Z,50.13
2023-02-13T20:44:30.633Z,51.27
2023-02-13T20:46:34.482Z,54.60
2023-02-13T20:48:37.659Z,48.03
2023-02-13T20:50:40.148Z,44.57
2023-02-13T20:52:42.375Z,45.83
2023-02-13T20:54:44.422Z,45.27
2023-02-13T20:56:47.658Z,47.73
2023-02-13T20:58:51.566Z,50.13
2023-02-13T21:00:53.645Z,48.87
2023-02-13T21:02:55.824Z,54.20
2023-02-13T21:04:57.966Z,54.90
2023-02-13T21:07:00.338Z,57.93
2023-02-13T21:09:04.296Z,54.13
2023-02-13T21:11:07.942Z,53.77
2023-02-13T21:13:10.696Z,55.30
2023-02-13T21:15:12.717Z,55.67
2023-02-13T21:17:14.821Z,64.47
2023-02-13T21:19:21.359Z,68.33
2023-02-13T21:21:28.056Z,63.20
2023-02-13T21:23:31.025Z,61.30
2023-02-13T21:25:33.628Z,56.90
2023-02-13T21:27:35.634Z,50.93
2023-02-13T21:29:38.389Z,47.20
2023-02-13T21:31:47.957Z,46.50
2023-02-13T21:33:50.669Z,47.03
2023-02-13T21:36:01.131Z,52.90
2023-02-13T21:38:03.401Z,46.13
2023-02-13T21:40:06.205Z,40.53
2023-02-13T21:42:08.586Z,43.10
2023-02-13T21:44:16.126Z,45.47
2023-02-13T21:46:18.100Z,53.77
2023-02-13T21:48:20.534Z,59.80
2023-02-13T21:50:23.226Z,55.87
2023-02-13T21:52:25.228Z,57.70
2023-02-13T21:54:27.323Z,72.47
2023-02-13T21:56:32.226Z,51.07
2023-02-13T21:58:36.523Z,59.93
2023-02-13T22:00:38.494Z,53.20
2023-02-13T22:02:41.141Z,46.10
2023-02-13T22:04:43.325Z,47.27
2023-02-13T22:06:49.326Z,50.43
2023-02-13T22:08:57.115Z,56.47
2023-02-13T22:11:02.966Z,66.73
2023-02-13T22:13:05.264Z,75.53
2023-02-13T22:15:07.868Z,66.67
2023-02-13T22:17:10.261Z,53.37
2023-02-13T22:19:16.587Z,49.03
2023-02-13T22:21:23.126Z,54.17
2023-02-13T22:23:28.191Z,50.53
2023-02-13T22:25:30.568Z,50.37
2023-02-13T22:27:32.695Z,54.97
2023-02-13T22:29:35.015Z,56.37
2023-02-13T22:31:37.813Z,51.97
2023-02-13T22:33:40.923Z,62.50
2023-02-13T22:35:43.164Z,55.17
2023-02-13T22:37:45.034Z,42.70
2023-02-13T22:39:47.182Z,41.57
2023-02-13T22:41:49.227Z,45.50
2023-02-13T22:43:52.239Z,49.60
2023-02-13T22:45:54.316Z,53.17
2023-02-13T22:47:56.544Z,49.93
2023-02-13T22:49:58.750Z,41.27
2023-02-13T22:52:01.405Z,37.67
2023-02-13T22:54:04.204Z,37.27
2023-02-13T22:56:09.054Z,45.50
2023-02-13T22:58:11.734Z,46.33
2023-02-13T23:00:15.054Z,43.40
2023-02-13T23:02:17.098Z,47.77
2023-02-13T23:04:19.357Z,46.33
2023-02-13T23:06:22.127Z,48.73
2023-02-13T23:08:24.232Z,50.80
2023-02-13T23:10:26.962Z,50.50
2023-02-13T23:12:40.346Z,47.40
2023-02-13T23:14:42.357Z,43.43
2023-02-13T23:17:03.553Z,41.40
2023-02-13T23:19:05.840Z,43.80
2023-02-13T23:21:11.458Z,41.97
2023-02-13T23:23:13.588Z,36.27
2023-02-13T23:25:16.895Z,36.97
2023-02-13T23:27:19.038Z,31.33
2023-02-13T23:29:21.504Z,32.87
2023-02-13T23:31:23.607Z,32.00
2023-02-13T23:33:25.747Z,32.80
2023-02-13T23:35:27.820Z,32.83
2023-02-13T23:37:30.753Z,39.60
2023-02-13T23:39:32.890Z,40.90
2023-02-13T23:41:35.033Z,41.80
2023-02-13T23:43:37.100Z,41.93
2023-02-13T23:45:39.378Z,36.93
2023-02-13T23:47:41.673Z,35.80
2023-02-13T23:49:43.606Z,37.83
2023-02-13T23:51:45.702Z,37.47
2023-02-13T23:53:47.983Z,35.97
2023-02-13T23:55:50.867Z,34.23
2023-02-13T23:57:52.995Z,38.57
2023-02-13T23:59:55.040Z,37.57
